Archival Weather

Chicago O'Hare International

Chicago, Illinois (KORD)

Report from: Saturday, May 20, 2023 7:51 PM CDT
Current time: Sunday, February 25, 2024 4:26 PM CST

Current weather – Weather history – Daily summaries
Weather forecast

Temperature19.4°C (66.9°F)
Dew point4.4°C (39.9°F)
Winds 8 kts (4.1 m/s, 9.2 mph) Southeast (140°)
Visibility10 mi. (16.1 km)
Clouds Few clouds 25,000 ft. (7,620 m)
Altimeter30.11 in.Hg (1020 mB)
Relative humidity37 %
Density altitude427 ft. (130 m)
Sea-level pressure102.0 kPa (1020 mB, 30.11 in.Hg)
Remarks Automated weather observing station with precipitation discriminator
Flight conditions Visual Meteorological Conditions
Raw dataKORD 210051Z 14008KT 10SM FEW250 19/04 A3011 RMK AO2 SLP196 T01940044
An error has occurred. This application may no longer respond until reloaded. Reload 🗙